createdAt,value
2022-09-23T00:01:11.563Z,60.96
2022-09-23T00:02:14.660Z,60.98
2022-09-23T00:03:17.883Z,61.11
2022-09-23T00:04:21.161Z,60.91
2022-09-23T00:05:24.181Z,60.89
2022-09-23T00:06:30.765Z,61.06
2022-09-23T00:07:33.712Z,60.60
2022-09-23T00:08:37.596Z,60.60
2022-09-23T00:09:40.622Z,60.00
2022-09-23T00:10:43.489Z,60.42
2022-09-23T00:11:46.553Z,60.20
2022-09-23T00:12:49.681Z,60.10
2022-09-23T00:13:58.745Z,60.00
2022-09-23T00:15:02.167Z,60.12
2022-09-23T00:16:08.336Z,60.38
2022-09-23T00:17:11.435Z,60.42
2022-09-23T00:18:14.309Z,60.61
2022-09-23T00:19:17.479Z,60.38
2022-09-23T00:20:20.423Z,60.77
2022-09-23T00:21:23.777Z,60.84
2022-09-23T00:22:26.722Z,60.80
2022-09-23T00:23:29.834Z,60.73
2022-09-23T00:24:32.993Z,60.61
2022-09-23T00:25:36.007Z,60.14
2022-09-23T00:26:38.781Z,60.79
2022-09-23T00:27:42.558Z,60.77
2022-09-23T00:28:46.011Z,60.52
2022-09-23T00:29:49.063Z,60.49
2022-09-23T00:30:52.865Z,60.86
2022-09-23T00:31:56.090Z,60.38
2022-09-23T00:32:59.865Z,60.71
2022-09-23T00:34:03.156Z,60.73
2022-09-23T00:35:06.793Z,60.33
2022-09-23T00:36:15.874Z,60.57
2022-09-23T00:37:22.143Z,60.54
2022-09-23T00:38:25.280Z,60.65
2022-09-23T00:39:28.284Z,60.47
2022-09-23T00:40:31.413Z,60.74
2022-09-23T00:41:35.333Z,60.06
2022-09-23T00:42:38.347Z,60.55
2022-09-23T00:43:47.425Z,59.91
2022-09-23T00:45:00.990Z,60.18
2022-09-23T00:46:04.651Z,60.13
2022-09-23T00:48:11.953Z,60.06
2022-09-23T00:49:29.422Z,59.78
2022-09-23T00:50:41.475Z,59.80
2022-09-23T00:52:13.085Z,59.17
2022-09-23T00:53:21.212Z,58.98
2022-09-23T00:54:27.406Z,59.06
2022-09-23T00:55:47.086Z,58.43
2022-09-23T00:56:50.439Z,58.74
2022-09-23T00:57:59.118Z,58.50
2022-09-23T00:59:06.335Z,58.21
2022-09-23T01:00:10.348Z,58.41
2022-09-23T01:01:16.326Z,58.17
2022-09-23T01:02:24.117Z,58.32
2022-09-23T01:03:28.243Z,58.17
2022-09-23T01:04:31.700Z,58.24
2022-09-23T01:05:36.461Z,58.04
2022-09-23T01:06:39.413Z,58.22
2022-09-23T01:07:42.430Z,58.16
2022-09-23T01:08:47.684Z,58.34
2022-09-23T01:09:51.105Z,58.24
2022-09-23T01:11:29.093Z,58.31
2022-09-23T01:13:04.635Z,58.28
2022-09-23T01:14:32.225Z,58.21
2022-09-23T01:15:53.270Z,58.29
2022-09-23T01:17:11.503Z,58.34
2022-09-23T01:19:10.453Z,58.30
2022-09-23T01:20:56.959Z,58.83
2022-09-23T01:22:46.995Z,58.95
2022-09-23T01:24:02.515Z,58.76
2022-09-23T01:25:40.896Z,59.00
2022-09-23T01:27:08.978Z,58.77
2022-09-23T01:28:30.237Z,58.32
2022-09-23T01:30:07.938Z,58.56
2022-09-23T01:31:35.479Z,58.91
2022-09-23T01:33:00.841Z,59.28
2022-09-23T01:34:39.053Z,59.35
2022-09-23T01:36:26.077Z,59.43
2022-09-23T01:38:28.700Z,59.35
2022-09-23T01:39:39.476Z,59.40
2022-09-23T01:41:00.093Z,59.27
2022-09-23T01:42:18.925Z,59.26
2022-09-23T01:43:31.134Z,59.30
2022-09-23T01:44:43.249Z,59.22
2022-09-23T01:45:54.699Z,58.93
2022-09-23T01:47:43.198Z,58.46
2022-09-23T01:49:15.479Z,58.89
2022-09-23T01:50:51.004Z,58.51
2022-09-23T01:52:10.210Z,58.80
2022-09-23T01:53:22.182Z,59.01
2022-09-23T01:54:35.016Z,59.07
2022-09-23T01:55:47.697Z,59.23
2022-09-23T01:57:03.890Z,59.29
2022-09-23T01:58:17.164Z,59.29
2022-09-23T01:59:34.481Z,59.43
2022-09-23T02:00:43.982Z,59.50
2022-09-23T02:02:06.354Z,59.76
2022-09-23T02:03:22.149Z,59.78
2022-09-23T02:04:48.234Z,59.69
2022-09-23T02:05:59.512Z,59.34
2022-09-23T02:07:15.053Z,59.63
2022-09-23T02:08:44.605Z,59.82
2022-09-23T02:10:14.008Z,59.68
2022-09-23T02:11:18.347Z,59.59
2022-09-23T02:12:24.603Z,59.41
2022-09-23T02:13:42.327Z,59.70
2022-09-23T02:14:59.735Z,59.65
2022-09-23T02:16:12.270Z,59.58
2022-09-23T02:17:28.585Z,59.55
2022-09-23T02:18:55.954Z,59.89
2022-09-23T02:20:05.829Z,59.66
2022-09-23T02:21:11.396Z,59.80
2022-09-23T02:22:46.721Z,59.48
2022-09-23T02:23:59.370Z,59.50
2022-09-23T02:25:03.954Z,59.77
2022-09-23T02:26:23.335Z,59.31
2022-09-23T02:28:16.937Z,59.15
2022-09-23T02:29:53.992Z,59.67
2022-09-23T02:31:12.051Z,59.91
2022-09-23T02:32:25.939Z,60.00
2022-09-23T02:33:45.020Z,60.41
2022-09-23T02:35:13.259Z,60.18
2022-09-23T02:36:34.660Z,60.38
2022-09-23T02:38:02.690Z,60.72
2022-09-23T02:39:12.340Z,60.20
2022-09-23T02:41:04.962Z,60.39
2022-09-23T02:42:15.583Z,60.20
2022-09-23T02:44:07.705Z,60.76
2022-09-23T02:45:10.769Z,60.90
2022-09-23T02:46:13.806Z,60.52
2022-09-23T02:47:24.752Z,60.61
2022-09-23T02:48:46.494Z,60.63
2022-09-23T02:49:53.666Z,60.67
2022-09-23T02:50:57.730Z,60.79
2022-09-23T02:52:07.677Z,61.00
2022-09-23T02:53:10.953Z,60.39
2022-09-23T02:54:20.813Z,60.59
2022-09-23T02:55:24.542Z,60.50
2022-09-23T02:56:29.027Z,60.61
2022-09-23T02:57:32.429Z,60.49
2022-09-23T02:58:36.809Z,60.63
2022-09-23T02:59:39.746Z,60.95
2022-09-23T03:01:37.378Z,60.59
2022-09-23T03:03:12.303Z,60.98
2022-09-23T03:04:31.674Z,60.89
2022-09-23T03:05:45.600Z,60.65
2022-09-23T03:07:19.367Z,60.52
2022-09-23T03:08:51.142Z,60.66
2022-09-23T03:09:57.400Z,60.58
2022-09-23T03:11:13.637Z,60.51
2022-09-23T03:12:42.197Z,60.48
2022-09-23T03:14:16.970Z,60.59
2022-09-23T03:15:42.969Z,60.92
2022-09-23T03:17:10.615Z,60.54
2022-09-23T03:18:35.214Z,60.92
2022-09-23T03:20:10.876Z,60.87
2022-09-23T03:21:45.513Z,60.87
2022-09-23T03:22:57.105Z,60.47
2022-09-23T03:24:04.604Z,60.31
2022-09-23T03:25:16.041Z,60.46
2022-09-23T03:26:29.327Z,59.76
2022-09-23T03:27:34.804Z,59.19
2022-09-23T03:28:42.256Z,59.65
2022-09-23T03:29:48.721Z,59.48
2022-09-23T03:30:54.389Z,59.04
2022-09-23T03:31:58.547Z,59.44
2022-09-23T03:33:06.326Z,60.45
2022-09-23T03:34:32.243Z,60.24
2022-09-23T03:36:01.895Z,61.66
2022-09-23T03:37:23.650Z,61.69
2022-09-23T03:38:35.135Z,62.27
2022-09-23T03:39:50.103Z,62.46
2022-09-23T03:40:56.771Z,62.43
2022-09-23T03:42:08.004Z,62.10
2022-09-23T03:43:13.973Z,62.60
2022-09-23T03:44:20.831Z,61.90
2022-09-23T03:45:31.089Z,61.91
2022-09-23T03:46:35.522Z,61.91
2022-09-23T03:47:39.490Z,62.05
2022-09-23T03:48:42.502Z,61.96
2022-09-23T03:49:49.031Z,62.25
2022-09-23T03:50:52.050Z,62.24
2022-09-23T03:51:56.162Z,61.94
2022-09-23T03:52:59.374Z,61.89
2022-09-23T03:54:02.531Z,61.34
2022-09-23T03:55:07.073Z,60.93
2022-09-23T03:56:11.815Z,61.24
2022-09-23T03:57:15.017Z,61.23
2022-09-23T03:58:18.103Z,61.42
2022-09-23T03:59:21.089Z,61.24
2022-09-23T04:00:24.005Z,61.04
2022-09-23T04:01:27.308Z,60.93
2022-09-23T04:02:30.243Z,60.97
2022-09-23T04:03:33.203Z,60.49
2022-09-23T04:04:40.262Z,60.29
2022-09-23T04:05:44.901Z,59.83
2022-09-23T04:06:48.052Z,59.79
2022-09-23T04:07:51.192Z,60.34
2022-09-23T04:08:54.032Z,60.64
2022-09-23T04:09:56.983Z,60.53
2022-09-23T04:11:04.805Z,61.03
2022-09-23T04:12:13.251Z,60.94
2022-09-23T04:13:17.263Z,61.25
2022-09-23T04:14:21.757Z,61.04
2022-09-23T04:15:24.802Z,61.05
2022-09-23T04:16:28.003Z,61.53
2022-09-23T04:17:30.992Z,61.45
2022-09-23T04:18:34.063Z,61.12
2022-09-23T04:19:37.301Z,61.14
2022-09-23T04:20:40.097Z,61.34
2022-09-23T04:21:44.516Z,61.23
2022-09-23T04:22:47.491Z,61.50
2022-09-23T04:23:50.425Z,61.79
2022-09-23T04:24:53.212Z,61.62
2022-09-23T04:25:56.195Z,61.46
2022-09-23T04:26:59.189Z,61.05
2022-09-23T04:28:02.715Z,61.18
2022-09-23T04:29:06.486Z,61.30
2022-09-23T04:30:10.039Z,61.03
2022-09-23T04:31:13.022Z,61.15
2022-09-23T04:32:15.988Z,61.31
2022-09-23T04:33:18.921Z,61.55
2022-09-23T04:34:22.027Z,61.45
2022-09-23T04:35:24.965Z,61.28
2022-09-23T04:36:29.272Z,61.75
2022-09-23T04:37:32.321Z,62.02
2022-09-23T04:38:35.935Z,62.13
2022-09-23T04:39:38.740Z,61.84
2022-09-23T04:40:41.761Z,61.69
2022-09-23T04:41:46.133Z,61.83
2022-09-23T04:42:50.540Z,62.00
2022-09-23T04:43:53.726Z,61.91
2022-09-23T04:44:56.970Z,61.97
2022-09-23T04:46:02.450Z,62.20
2022-09-23T04:47:05.489Z,62.53
2022-09-23T04:48:09.663Z,62.47
2022-09-23T04:49:13.127Z,62.39
2022-09-23T04:50:16.109Z,62.60
2022-09-23T04:51:22.481Z,62.46
2022-09-23T04:52:25.522Z,62.53
2022-09-23T04:53:29.030Z,63.12
2022-09-23T04:54:33.052Z,62.64
2022-09-23T04:55:36.515Z,63.15
2022-09-23T04:56:39.907Z,62.61
2022-09-23T04:57:42.804Z,62.82
2022-09-23T04:58:46.938Z,62.45
2022-09-23T04:59:49.859Z,62.50
2022-09-23T05:00:52.891Z,62.52
2022-09-23T05:01:55.872Z,62.45
2022-09-23T05:02:59.029Z,62.55
2022-09-23T05:04:06.894Z,62.73
2022-09-23T05:05:09.714Z,62.92
2022-09-23T05:06:14.581Z,62.63
2022-09-23T05:07:19.156Z,62.67
2022-09-23T05:08:22.288Z,63.49
2022-09-23T05:09:25.182Z,63.03
2022-09-23T05:10:28.196Z,63.22
2022-09-23T05:11:31.767Z,63.03
2022-09-23T05:12:34.783Z,63.09
2022-09-23T05:13:37.754Z,62.52
2022-09-23T05:14:40.710Z,63.15
2022-09-23T05:15:43.657Z,62.80
2022-09-23T05:16:46.565Z,63.06
2022-09-23T05:17:49.377Z,62.82
2022-09-23T05:18:54.110Z,62.79
2022-09-23T05:19:58.653Z,63.06
2022-09-23T05:21:02.768Z,63.17
2022-09-23T05:22:06.008Z,63.14
2022-09-23T05:23:09.269Z,62.75
2022-09-23T05:24:13.035Z,62.84
2022-09-23T05:25:16.096Z,62.76
2022-09-23T05:26:19.124Z,62.67
2022-09-23T05:27:22.178Z,62.54
2022-09-23T05:28:32.960Z,62.62
2022-09-23T05:29:36.205Z,62.73
2022-09-23T05:30:38.967Z,63.35
2022-09-23T05:31:41.908Z,63.03
2022-09-23T05:32:45.687Z,63.56
2022-09-23T05:33:55.691Z,64.04
2022-09-23T05:34:58.567Z,64.18
2022-09-23T05:36:03.218Z,63.69
2022-09-23T05:37:06.145Z,63.84
2022-09-23T05:38:09.713Z,63.52
2022-09-23T05:39:12.752Z,63.09
2022-09-23T05:40:15.709Z,62.59
2022-09-23T05:41:23.040Z,62.11
2022-09-23T05:42:26.281Z,61.21
2022-09-23T05:43:29.806Z,60.37
2022-09-23T05:44:33.037Z,60.72
2022-09-23T05:45:36.206Z,60.36
2022-09-23T05:46:39.513Z,59.76
2022-09-23T05:47:43.241Z,60.30
2022-09-23T05:48:47.664Z,60.23
2022-09-23T05:49:59.588Z,60.28
2022-09-23T05:51:04.335Z,61.10
2022-09-23T05:52:07.537Z,61.91
2022-09-23T05:53:12.102Z,62.17
2022-09-23T05:54:15.084Z,62.59
2022-09-23T05:55:18.392Z,60.08
2022-09-23T05:56:24.737Z,58.84
2022-09-23T05:57:27.963Z,57.30
2022-09-23T05:58:30.869Z,55.23
2022-09-23T05:59:33.951Z,54.26
2022-09-23T06:00:38.706Z,49.36
2022-09-23T06:01:41.703Z,48.37
2022-09-23T06:02:44.657Z,48.84
2022-09-23T06:03:49.246Z,46.89
2022-09-23T06:04:52.080Z,45.03
2022-09-23T06:05:56.095Z,41.32
2022-09-23T06:07:02.910Z,40.98
2022-09-23T06:08:07.784Z,38.44
2022-09-23T06:09:13.851Z,38.83
2022-09-23T06:10:16.878Z,35.18
2022-09-23T06:11:21.680Z,34.76
2022-09-23T06:12:25.298Z,34.59
2022-09-23T06:13:28.162Z,34.38
2022-09-23T06:14:31.054Z,32.92
2022-09-23T06:15:34.634Z,30.17
2022-09-23T06:16:37.708Z,29.08
2022-09-23T06:17:40.598Z,27.93
2022-09-23T06:18:45.909Z,28.03
2022-09-23T06:19:48.728Z,26.24
2022-09-23T06:20:52.212Z,25.65
2022-09-23T06:21:55.411Z,25.63
2022-09-23T06:23:10.101Z,26.46
2022-09-23T06:24:17.545Z,26.56
2022-09-23T06:25:23.058Z,25.60
2022-09-23T06:26:26.556Z,25.06
2022-09-23T06:27:29.288Z,25.73
2022-09-23T06:28:35.069Z,25.49
2022-09-23T06:29:39.135Z,25.51
2022-09-23T06:30:42.759Z,24.78
2022-09-23T06:31:45.817Z,24.79
2022-09-23T06:32:53.826Z,24.44
2022-09-23T06:34:08.174Z,24.06
2022-09-23T06:35:25.510Z,23.94
2022-09-23T06:36:41.164Z,24.03
2022-09-23T06:37:46.477Z,24.04
2022-09-23T06:38:49.513Z,23.65
2022-09-23T06:39:54.807Z,23.19
2022-09-23T06:40:58.711Z,22.54
2022-09-23T06:42:01.782Z,23.09
2022-09-23T06:43:04.729Z,22.66
2022-09-23T06:44:07.758Z,22.02
2022-09-23T06:45:15.333Z,21.78
2022-09-23T06:46:18.990Z,21.84
2022-09-23T06:47:22.273Z,21.11
2022-09-23T06:48:26.393Z,21.30
2022-09-23T06:49:29.247Z,21.09
2022-09-23T06:50:32.086Z,21.12
2022-09-23T06:51:35.188Z,21.12
2022-09-23T06:52:39.012Z,21.16
2022-09-23T06:53:41.985Z,20.50
2022-09-23T06:54:45.298Z,20.79
2022-09-23T06:55:48.396Z,20.14
2022-09-23T06:56:51.578Z,20.60
2022-09-23T06:57:58.069Z,19.64
2022-09-23T06:59:01.458Z,19.56
2022-09-23T07:00:05.183Z,19.91
2022-09-23T07:01:16.312Z,18.58
2022-09-23T07:02:19.576Z,19.23
2022-09-23T07:03:23.071Z,19.22
2022-09-23T07:04:29.328Z,18.67
2022-09-23T07:05:32.528Z,18.35
2022-09-23T07:06:35.767Z,17.94
2022-09-23T07:07:39.497Z,18.76
2022-09-23T07:08:47.515Z,18.39
2022-09-23T07:09:50.385Z,18.22
2022-09-23T07:10:55.196Z,17.91
2022-09-23T07:11:58.156Z,17.83
2022-09-23T07:13:04.909Z,17.89
2022-09-23T07:14:07.837Z,17.38
2022-09-23T07:15:11.610Z,17.75
2022-09-23T07:16:16.931Z,17.45
2022-09-23T07:17:20.773Z,16.85
2022-09-23T07:18:25.597Z,16.58
2022-09-23T07:19:28.688Z,16.34
2022-09-23T07:20:32.164Z,16.79
2022-09-23T07:21:35.165Z,15.85
2022-09-23T07:22:38.847Z,16.34
2022-09-23T07:23:48.063Z,15.52
2022-09-23T07:24:52.081Z,15.62
2022-09-23T07:25:59.064Z,15.26
2022-09-23T07:27:02.733Z,15.20
2022-09-23T07:28:07.186Z,15.01
2022-09-23T07:29:14.332Z,15.07
2022-09-23T07:30:24.854Z,14.85
2022-09-23T07:31:38.597Z,14.96
2022-09-23T07:32:48.626Z,15.37
2022-09-23T07:33:57.935Z,15.74
2022-09-23T07:35:00.741Z,15.58
2022-09-23T07:36:10.477Z,15.39
2022-09-23T07:37:15.291Z,14.91
2022-09-23T07:38:18.354Z,15.18
2022-09-23T07:39:21.418Z,15.84
2022-09-23T07:40:24.428Z,15.86
2022-09-23T07:41:29.127Z,15.33
2022-09-23T07:42:32.052Z,14.91
2022-09-23T07:43:35.510Z,14.42
2022-09-23T07:44:39.437Z,14.39
2022-09-23T07:45:43.670Z,14.01
2022-09-23T07:46:47.002Z,14.03
2022-09-23T07:47:50.000Z,13.77
2022-09-23T07:48:53.375Z,13.74
2022-09-23T07:49:56.537Z,14.02
2022-09-23T07:51:00.262Z,13.74
2022-09-23T07:52:04.863Z,13.10
2022-09-23T07:53:08.682Z,13.15
2022-09-23T07:54:15.186Z,13.15
2022-09-23T07:55:21.020Z,12.89
2022-09-23T07:56:29.758Z,12.70
2022-09-23T07:57:33.785Z,12.94
2022-09-23T07:58:36.994Z,12.70
2022-09-23T07:59:40.788Z,12.72
2022-09-23T08:00:43.991Z,13.05
2022-09-23T08:01:50.839Z,12.71
2022-09-23T08:02:54.202Z,12.71
2022-09-23T08:04:00.167Z,12.26
2022-09-23T08:05:03.642Z,12.57
2022-09-23T08:06:12.801Z,11.89
2022-09-23T08:07:16.497Z,11.98
2022-09-23T08:08:19.498Z,11.80
2022-09-23T08:09:28.387Z,12.09
2022-09-23T08:10:32.217Z,11.59
2022-09-23T08:11:36.496Z,12.11
2022-09-23T08:12:39.804Z,12.57
2022-09-23T08:13:43.091Z,12.57
2022-09-23T08:14:46.129Z,12.36
2022-09-23T08:15:53.256Z,12.33
2022-09-23T08:16:58.606Z,12.79
2022-09-23T08:18:01.675Z,12.38
2022-09-23T08:20:32.519Z,12.38
2022-09-23T08:21:35.660Z,12.00
2022-09-23T08:22:38.693Z,11.55
2022-09-23T08:23:41.577Z,11.15
2022-09-23T08:24:44.688Z,11.23
2022-09-23T08:25:48.301Z,10.95
2022-09-23T08:26:53.405Z,10.99
2022-09-23T08:27:57.110Z,10.76
2022-09-23T08:29:00.476Z,11.04
2022-09-23T08:30:03.531Z,10.92
2022-09-23T08:31:06.396Z,11.13
2022-09-23T08:32:09.368Z,11.26
2022-09-23T08:33:12.864Z,10.89
2022-09-23T08:34:18.295Z,10.14
2022-09-23T08:35:21.167Z,10.16
2022-09-23T08:36:25.383Z,10.10
2022-09-23T08:37:28.565Z,9.94
2022-09-23T08:38:31.739Z,10.03
2022-09-23T08:39:34.919Z,9.58
2022-09-23T08:40:43.164Z,9.86
2022-09-23T08:42:17.409Z,9.66
2022-09-23T08:43:32.866Z,9.91
2022-09-23T08:44:54.300Z,10.17
2022-09-23T08:46:08.759Z,10.29
2022-09-23T08:47:29.907Z,9.68
2022-09-23T08:48:43.650Z,9.80
2022-09-23T08:50:08.834Z,9.48
2022-09-23T08:51:25.882Z,9.54
2022-09-23T08:53:02.863Z,9.56
2022-09-23T08:54:07.638Z,9.62
2022-09-23T08:55:15.164Z,9.63
2022-09-23T08:56:22.748Z,9.75
2022-09-23T08:58:02.260Z,9.13
2022-09-23T08:59:29.243Z,9.11
2022-09-23T09:00:42.304Z,8.84
2022-09-23T09:01:53.237Z,8.67
2022-09-23T09:02:56.664Z,9.18
2022-09-23T09:04:12.528Z,9.13
2022-09-23T09:05:25.367Z,8.49
2022-09-23T09:07:31.847Z,8.68
2022-09-23T09:08:33.034Z,8.22
2022-09-23T09:10:00.035Z,8.16
2022-09-23T09:11:05.133Z,8.09
2022-09-23T09:12:43.664Z,7.90
2022-09-23T09:14:14.692Z,7.90
2022-09-23T09:15:25.478Z,7.97
2022-09-23T09:16:59.875Z,8.00
2022-09-23T09:18:12.959Z,7.75
2022-09-23T09:19:32.395Z,7.65
2022-09-23T09:21:11.588Z,7.25
2022-09-23T09:22:39.904Z,8.02
2022-09-23T09:23:56.716Z,9.09
2022-09-23T09:25:15.319Z,9.61
2022-09-23T09:26:28.708Z,11.00
2022-09-23T09:27:31.896Z,10.52
2022-09-23T09:28:51.295Z,10.12
2022-09-23T09:29:56.509Z,9.55
2022-09-23T09:31:25.681Z,9.12
2022-09-23T09:32:47.267Z,8.59
2022-09-23T09:34:33.452Z,7.88
2022-09-23T09:36:09.012Z,7.86
2022-09-23T09:37:47.092Z,7.63
2022-09-23T09:38:51.353Z,7.86
2022-09-23T09:39:56.734Z,7.56
2022-09-23T09:41:11.650Z,7.67
2022-09-23T09:42:24.640Z,7.36
2022-09-23T09:43:27.695Z,7.31
2022-09-23T09:44:52.761Z,8.30
2022-09-23T09:46:24.936Z,8.75
2022-09-23T09:48:21.061Z,9.01
2022-09-23T09:50:14.048Z,9.30
2022-09-23T09:51:23.549Z,9.83
2022-09-23T09:52:29.734Z,11.00
2022-09-23T09:53:35.942Z,11.20
2022-09-23T09:54:39.761Z,10.53
2022-09-23T09:55:42.808Z,11.90
2022-09-23T09:56:45.792Z,11.38
2022-09-23T09:58:04.189Z,9.55
2022-09-23T09:59:16.396Z,9.99
2022-09-23T10:00:27.921Z,9.17
2022-09-23T10:01:34.176Z,8.26
2022-09-23T10:02:39.958Z,8.25
2022-09-23T10:03:44.905Z,7.91
2022-09-23T10:05:06.820Z,8.40
2022-09-23T10:06:21.539Z,8.78
2022-09-23T10:07:29.327Z,9.17
2022-09-23T10:08:36.038Z,8.88
2022-09-23T10:09:43.048Z,10.06
2022-09-23T10:11:18.042Z,11.40
2022-09-23T10:12:26.106Z,12.09
2022-09-23T10:13:30.728Z,11.87
2022-09-23T10:14:33.713Z,11.23
2022-09-23T10:15:45.420Z,10.37
2022-09-23T10:17:05.423Z,9.92
2022-09-23T10:18:32.048Z,9.05
2022-09-23T10:19:44.864Z,9.13
2022-09-23T10:20:48.789Z,8.84
2022-09-23T10:21:56.884Z,8.46
2022-09-23T10:23:14.400Z,7.77
2022-09-23T10:24:25.971Z,7.79
2022-09-23T10:25:29.189Z,7.72
2022-09-23T10:26:43.415Z,8.55
2022-09-23T10:27:46.952Z,9.26
2022-09-23T10:28:56.400Z,9.11
2022-09-23T10:30:04.771Z,8.91
2022-09-23T10:31:24.798Z,8.22
2022-09-23T10:32:44.011Z,7.93
2022-09-23T10:33:54.946Z,7.70
2022-09-23T10:35:11.321Z,8.10
2022-09-23T10:36:18.799Z,8.21
2022-09-23T10:37:36.029Z,8.18
2022-09-23T10:38:39.071Z,7.97
2022-09-23T10:40:01.033Z,7.73
2022-09-23T10:41:32.015Z,8.31
2022-09-23T10:43:44.176Z,7.57
2022-09-23T10:45:37.536Z,8.55
2022-09-23T10:47:17.724Z,7.76
2022-09-23T10:49:27.659Z,8.38
2022-09-23T10:50:48.820Z,9.72
2022-09-23T10:52:06.723Z,10.82
2022-09-23T10:54:02.468Z,12.83
2022-09-23T10:55:14.448Z,14.22
2022-09-23T10:56:27.993Z,15.52
2022-09-23T10:57:45.931Z,14.36
2022-09-23T10:59:18.878Z,13.27
2022-09-23T11:00:52.192Z,11.87
2022-09-23T11:02:45.188Z,10.75
2022-09-23T11:04:21.974Z,9.95
2022-09-23T11:05:50.879Z,10.02
2022-09-23T11:07:27.695Z,9.72
2022-09-23T11:08:37.506Z,11.17
2022-09-23T11:10:02.158Z,11.80
2022-09-23T11:11:39.572Z,13.57
2022-09-23T11:12:49.091Z,12.02
2022-09-23T11:14:17.273Z,12.16
2022-09-23T11:15:45.891Z,100.00
2022-09-23T11:17:49.621Z,100.00
2022-09-23T11:19:23.296Z,100.00
2022-09-23T11:20:47.941Z,100.00
2022-09-23T11:22:08.438Z,100.00
2022-09-23T11:23:18.730Z,100.00
2022-09-23T11:25:00.180Z,100.00
2022-09-23T11:26:43.059Z,100.00
2022-09-23T11:28:06.677Z,100.00
2022-09-23T11:29:42.945Z,100.00
2022-09-23T11:31:06.814Z,100.00
2022-09-23T11:32:38.424Z,100.00
2022-09-23T11:34:10.011Z,100.00
2022-09-23T11:35:29.603Z,100.00
2022-09-23T11:36:46.757Z,100.00
2022-09-23T11:38:07.523Z,100.00
2022-09-23T11:39:29.228Z,100.00
2022-09-23T11:40:38.825Z,100.00
2022-09-23T11:41:46.382Z,100.00
2022-09-23T11:43:23.592Z,100.00
2022-09-23T11:44:49.974Z,100.00
2022-09-23T11:46:27.195Z,100.00
2022-09-23T11:47:43.189Z,100.00
2022-09-23T11:48:51.784Z,100.00
2022-09-23T11:50:25.879Z,100.00
2022-09-23T11:52:06.705Z,100.00
2022-09-23T11:53:30.855Z,100.00
2022-09-23T11:54:47.310Z,100.00
2022-09-23T11:56:05.831Z,100.00
2022-09-23T11:57:23.205Z,100.00
2022-09-23T11:58:35.244Z,100.00
2022-09-23T11:59:55.079Z,100.00
2022-09-23T12:01:13.541Z,100.00
2022-09-23T12:02:24.661Z,100.00
2022-09-23T12:03:58.648Z,100.00
2022-09-23T12:05:16.877Z,100.00
2022-09-23T12:06:28.088Z,100.00
2022-09-23T12:08:15.852Z,100.00
2022-09-23T12:09:57.678Z,100.00
2022-09-23T12:11:16.141Z,100.00
2022-09-23T12:13:00.129Z,100.00
2022-09-23T12:14:33.699Z,100.00
2022-09-23T12:15:52.052Z,100.00
2022-09-23T12:17:22.192Z,100.00
2022-09-23T12:18:42.974Z,100.00
2022-09-23T12:20:31.431Z,100.00
2022-09-23T12:22:04.445Z,100.00
2022-09-23T12:23:37.360Z,100.00
2022-09-23T12:24:54.633Z,100.00
2022-09-23T12:26:06.944Z,100.00
2022-09-23T12:27:21.929Z,100.00
2022-09-23T12:28:45.129Z,100.00
2022-09-23T12:29:52.702Z,100.00
2022-09-23T12:30:59.353Z,100.00
2022-09-23T12:32:09.993Z,100.00
2022-09-23T12:33:32.487Z,100.00
2022-09-23T12:34:49.056Z,100.00
2022-09-23T12:36:04.843Z,100.00
2022-09-23T12:37:07.885Z,100.00
2022-09-23T12:38:36.532Z,100.00
2022-09-23T12:39:39.920Z,100.00
2022-09-23T12:40:44.943Z,100.00
2022-09-23T12:41:54.113Z,100.00
2022-09-23T12:43:01.270Z,100.00
2022-09-23T12:44:15.905Z,100.00
2022-09-23T12:45:32.839Z,100.00
2022-09-23T12:46:35.948Z,100.00
2022-09-23T12:47:40.046Z,100.00
2022-09-23T12:49:01.680Z,100.00
2022-09-23T12:51:09.356Z,100.00
2022-09-23T12:52:27.497Z,100.00
2022-09-23T12:53:36.211Z,100.00
2022-09-23T12:54:41.119Z,100.00
2022-09-23T12:55:47.030Z,100.00
2022-09-23T12:56:56.019Z,100.00
2022-09-23T12:57:59.082Z,100.00
2022-09-23T12:59:16.714Z,100.00
2022-09-23T13:00:29.854Z,100.00
2022-09-23T13:01:39.125Z,100.00
2022-09-23T13:02:47.871Z,100.00
2022-09-23T13:04:17.775Z,100.00
2022-09-23T13:05:43.833Z,100.00
2022-09-23T13:07:06.395Z,100.00
2022-09-23T13:08:25.057Z,100.00
2022-09-23T13:09:45.342Z,100.00
2022-09-23T13:11:01.376Z,100.00
2022-09-23T13:12:15.646Z,100.00
2022-09-23T13:13:36.033Z,100.00
2022-09-23T13:14:45.050Z,100.00
2022-09-23T13:15:48.797Z,100.00
2022-09-23T13:16:52.104Z,100.00
2022-09-23T13:18:20.377Z,100.00
2022-09-23T13:19:26.194Z,100.00
2022-09-23T13:20:38.444Z,100.00
2022-09-23T13:21:47.435Z,100.00
2022-09-23T13:22:51.911Z,100.00
2022-09-23T13:24:13.105Z,100.00
2022-09-23T13:25:27.483Z,100.00
2022-09-23T13:26:32.483Z,100.00
2022-09-23T13:27:36.757Z,100.00
2022-09-23T13:28:56.976Z,100.00
2022-09-23T13:30:26.450Z,100.00
2022-09-23T13:31:30.296Z,100.00
2022-09-23T13:32:49.818Z,100.00
2022-09-23T13:34:01.854Z,100.00
2022-09-23T13:35:39.176Z,100.00
2022-09-23T13:36:48.245Z,100.00
2022-09-23T13:37:51.352Z,100.00
2022-09-23T13:39:13.184Z,100.00
2022-09-23T13:40:19.743Z,100.00
2022-09-23T13:41:28.769Z,100.00
2022-09-23T13:42:32.620Z,100.00
2022-09-23T13:43:46.409Z,100.00
2022-09-23T13:44:49.715Z,100.00
2022-09-23T13:45:52.832Z,100.00
2022-09-23T13:46:59.908Z,100.00
2022-09-23T13:48:10.584Z,100.00
2022-09-23T13:49:26.190Z,100.00
2022-09-23T13:50:34.689Z,100.00
2022-09-23T13:51:38.408Z,100.00
2022-09-23T13:52:41.770Z,100.00
2022-09-23T13:53:54.677Z,100.00
2022-09-23T13:54:57.820Z,100.00
2022-09-23T13:56:15.160Z,100.00
2022-09-23T13:57:34.974Z,100.00
2022-09-23T13:58:38.694Z,100.00
2022-09-23T13:59:42.544Z,100.00
2022-09-23T14:00:46.374Z,100.00
2022-09-23T14:01:49.455Z,100.00
2022-09-23T14:02:55.489Z,100.00
2022-09-23T14:03:59.223Z,100.00
2022-09-23T14:05:12.704Z,100.00
2022-09-23T14:06:17.058Z,100.00
2022-09-23T14:07:22.373Z,100.00
2022-09-23T14:08:26.399Z,100.00
2022-09-23T14:09:30.540Z,100.00
2022-09-23T14:10:34.298Z,100.00
2022-09-23T14:11:37.548Z,100.00
2022-09-23T14:12:41.398Z,100.00
2022-09-23T14:13:49.173Z,100.00
2022-09-23T14:14:53.192Z,100.00
2022-09-23T14:16:00.098Z,100.00
2022-09-23T14:17:05.666Z,100.00
2022-09-23T14:18:08.711Z,100.00
2022-09-23T14:19:19.716Z,100.00
2022-09-23T14:20:23.799Z,100.00
2022-09-23T14:21:27.630Z,100.00
2022-09-23T14:22:31.123Z,100.00
2022-09-23T14:23:34.097Z,100.00
2022-09-23T14:24:38.827Z,100.00
2022-09-23T14:25:47.394Z,100.00
2022-09-23T14:26:57.957Z,100.00
2022-09-23T14:28:01.337Z,100.00
2022-09-23T14:29:04.490Z,100.00
2022-09-23T14:30:20.277Z,100.00
2022-09-23T14:31:23.986Z,100.00
2022-09-23T14:32:29.347Z,100.00
2022-09-23T14:33:34.104Z,100.00
2022-09-23T14:35:01.215Z,100.00
2022-09-23T14:36:29.528Z,100.00
2022-09-23T14:38:03.219Z,100.00
2022-09-23T14:39:12.359Z,100.00
2022-09-23T14:40:31.429Z,100.00
2022-09-23T14:41:39.023Z,100.00
2022-09-23T14:43:15.861Z,100.00
2022-09-23T14:44:25.184Z,100.00
2022-09-23T14:45:36.213Z,100.00
2022-09-23T14:46:40.072Z,100.00
2022-09-23T14:47:53.423Z,100.00
2022-09-23T14:49:17.427Z,100.00
2022-09-23T14:50:37.191Z,100.00
2022-09-23T14:51:43.190Z,100.00
2022-09-23T14:52:52.820Z,100.00
2022-09-23T14:53:56.006Z,100.00
2022-09-23T14:55:00.872Z,100.00
2022-09-23T14:56:06.574Z,100.00
2022-09-23T14:57:29.775Z,100.00
2022-09-23T14:58:56.351Z,100.00
2022-09-23T15:00:06.395Z,100.00
2022-09-23T15:01:31.476Z,100.00
2022-09-23T15:02:43.049Z,100.00
2022-09-23T15:03:49.948Z,100.00
2022-09-23T15:05:07.999Z,100.00
2022-09-23T15:06:12.841Z,100.00
2022-09-23T15:07:20.385Z,100.00
2022-09-23T15:08:27.215Z,100.00
2022-09-23T15:09:41.818Z,100.00
2022-09-23T15:10:46.203Z,100.00
2022-09-23T15:11:53.214Z,100.00
2022-09-23T15:13:07.605Z,100.00
2022-09-23T15:14:36.118Z,100.00
2022-09-23T15:15:35.678Z,100.00
2022-09-23T15:16:39.794Z,100.00
2022-09-23T15:17:43.464Z,100.00
2022-09-23T15:18:53.300Z,100.00
2022-09-23T15:20:17.268Z,100.00
2022-09-23T15:21:23.308Z,100.00
2022-09-23T15:22:27.698Z,100.00
2022-09-23T15:23:49.911Z,100.00
2022-09-23T15:24:55.051Z,100.00
2022-09-23T15:25:58.248Z,100.00
2022-09-23T15:27:01.254Z,100.00